Time;durP1;ratioP1;P1;durP2;ratioP2;P2;SDS_P1;SDS_P2;PMS_P1;PMS_P2;Temp;Humidity;BMP_temperature;BMP_pressure;BME280_temperature;BME280_humidity;BME280_pressure;Samples;Min_cycle;Max_cycle;Signal;HPM_P1;HPM_P2
2022/05/05 00:00:46;;;;;;;8.38;3.28;;;11.30;99.90;;;;;;4989766;28;20022;-69
2022/05/05 00:03:12;;;;;;;8.70;3.75;;;11.10;99.90;;;;;;5023614;28;20256;-70
2022/05/05 00:05:38;;;;;;;6.93;3.40;;;11.00;99.90;;;;;;5006467;28;20319;-70
2022/05/05 00:08:04;;;;;;;12.70;3.88;;;10.90;99.90;;;;;;5007203;28;20061;-70
2022/05/05 00:16:00;;;;;;;8.15;4.05;;;10.70;99.90;;;;;;5023542;28;20024;-69
2022/05/05 00:18:26;;;;;;;6.70;3.58;;;10.60;99.90;;;;;;5023307;28;20022;-70
2022/05/05 00:20:52;;;;;;;12.77;4.18;;;10.60;99.90;;;;;;5004745;28;20334;-70
2022/05/05 00:23:18;;;;;;;11.77;4.38;;;10.60;99.90;;;;;;5024432;28;20026;-71
2022/05/05 00:25:43;;;;;;;8.82;5.32;;;10.70;99.90;;;;;;5022779;28;20256;-69
2022/05/05 00:28:09;;;;;;;8.98;4.97;;;10.80;99.90;;;;;;5023139;28;20029;-69
2022/05/05 00:30:35;;;;;;;9.07;4.55;;;10.80;99.90;;;;;;5006704;28;20048;-70
2022/05/05 00:33:00;;;;;;;8.93;4.60;;;10.90;99.90;;;;;;5022626;28;20034;-70
2022/05/05 00:35:26;;;;;;;9.77;5.00;;;10.90;99.90;;;;;;5022708;28;20017;-70
2022/05/05 00:37:52;;;;;;;9.05;4.82;;;10.90;99.90;;;;;;5007213;28;20037;-70
2022/05/05 00:40:17;;;;;;;11.27;5.55;;;10.80;99.90;;;;;;5023175;28;20018;-70
2022/05/05 00:42:43;;;;;;;10.63;5.40;;;10.80;99.90;;;;;;5022496;28;20034;-70
2022/05/05 00:45:09;;;;;;;13.18;5.95;;;10.70;99.90;;;;;;5022942;28;20089;-71
2022/05/05 00:47:35;;;;;;;8.02;5.32;;;10.60;99.90;;;;;;5007783;28;20030;-71
2022/05/05 00:50:01;;;;;;;7.43;5.38;;;10.60;99.90;;;;;;5002966;28;20317;-70
2022/05/05 00:52:27;;;;;;;10.23;5.10;;;10.50;99.90;;;;;;5002909;28;20065;-71
2022/05/05 00:54:56;;;;;;;10.60;5.00;;;10.50;99.90;;;;;;5004468;28;20029;-70
2022/05/05 00:57:23;;;;;;;10.35;4.80;;;10.40;99.90;;;;;;5002949;28;20241;-71
2022/05/05 00:59:51;;;;;;;12.25;4.72;;;10.40;99.90;;;;;;5019078;28;20320;-70
2022/05/05 01:02:17;;;;;;;9.65;4.53;;;10.30;99.90;;;;;;4987026;28;20049;-71
2022/05/05 01:04:43;;;;;;;6.55;3.92;;;10.30;99.90;;;;;;5019308;28;20034;-70
2022/05/05 01:07:09;;;;;;;6.47;4.00;;;10.20;99.90;;;;;;5003993;28;20022;-72
2022/05/05 01:09:35;;;;;;;7.45;3.90;;;10.00;99.90;;;;;;4986510;28;20026;-70
2022/05/05 01:12:02;;;;;;;8.45;4.63;;;10.00;99.90;;;;;;5003890;28;20026;-69
2022/05/05 01:14:29;;;;;;;9.55;4.78;;;9.90;99.90;;;;;;5003104;28;20246;-70
2022/05/05 01:16:55;;;;;;;6.75;4.35;;;9.90;99.90;;;;;;5002628;28;20221;-70
2022/05/05 01:19:20;;;;;;;9.88;4.78;;;9.90;99.90;;;;;;4986486;28;20041;-70
2022/05/05 01:21:51;;;;;;;9.20;4.50;;;9.80;99.90;;;;;;5001042;28;20088;-70
2022/05/05 01:24:17;;;;;;;11.83;4.33;;;9.80;99.90;;;;;;4986646;28;20050;-70
2022/05/05 01:29:29;;;;;;;12.07;4.93;;;9.80;99.90;;;;;;4989156;28;20018;-71
2022/05/05 01:31:57;;;;;;;11.57;5.32;;;9.70;99.90;;;;;;4986506;28;20038;-69
2022/05/05 01:34:24;;;;;;;6.93;4.15;;;9.70;99.90;;;;;;4986447;28;20022;-70
2022/05/05 01:36:50;;;;;;;6.40;4.20;;;9.60;99.90;;;;;;5002685;28;20221;-70
2022/05/05 01:39:15;;;;;;;9.90;4.90;;;9.60;99.90;;;;;;5002390;28;20077;-70
2022/05/05 01:41:41;;;;;;;9.40;4.32;;;9.60;99.90;;;;;;5002483;28;20023;-70
2022/05/05 01:44:07;;;;;;;8.88;4.70;;;9.60;99.90;;;;;;5003846;28;20424;-71
2022/05/05 01:46:32;;;;;;;7.05;4.07;;;9.50;99.90;;;;;;5006308;28;20024;-70
2022/05/05 01:48:58;;;;;;;6.15;4.35;;;9.50;99.90;;;;;;4990195;28;20209;-70
2022/05/05 01:51:24;;;;;;;7.95;4.90;;;9.50;99.90;;;;;;4989789;28;20783;-70
2022/05/05 01:53:49;;;;;;;10.80;4.68;;;9.50;99.90;;;;;;5006007;28;20109;-70
2022/05/05 01:56:15;;;;;;;8.80;4.47;;;9.50;99.90;;;;;;5006201;28;20276;-70
2022/05/05 01:58:42;;;;;;;8.20;4.03;;;9.50;99.90;;;;;;4989758;28;20101;-68
2022/05/05 02:01:08;;;;;;;7.95;5.07;;;9.40;99.90;;;;;;5027563;28;20024;-71
2022/05/05 02:03:34;;;;;;;10.90;4.60;;;9.30;99.90;;;;;;5009267;28;20025;-70
2022/05/05 02:06:00;;;;;;;9.52;5.10;;;9.30;99.90;;;;;;5009094;28;20022;-70
2022/05/05 02:08:26;;;;;;;9.23;4.68;;;9.30;99.90;;;;;;5042129;28;20061;-70
2022/05/05 02:10:51;;;;;;;9.18;4.85;;;9.20;99.90;;;;;;5026794;28;20026;-68
2022/05/05 02:13:20;;;;;;;10.23;5.07;;;9.20;99.90;;;;;;5025763;28;20028;-70
2022/05/05 02:15:46;;;;;;;11.38;5.10;;;9.10;99.90;;;;;;5009758;28;20068;-71
2022/05/05 02:18:12;;;;;;;10.63;5.28;;;9.10;99.90;;;;;;5042083;28;20064;-70
2022/05/05 02:20:39;;;;;;;12.98;5.20;;;9.20;99.90;;;;;;5008264;28;20026;-71
2022/05/05 02:23:06;;;;;;;8.15;4.85;;;9.20;99.90;;;;;;5024845;28;20212;-70
2022/05/05 02:25:32;;;;;;;6.68;4.80;;;9.10;99.90;;;;;;5009380;28;20083;-71
2022/05/05 02:27:58;;;;;;;10.38;4.93;;;9.10;99.90;;;;;;5026166;28;20308;-69
2022/05/05 02:30:24;;;;;;;10.60;4.82;;;9.10;99.90;;;;;;5025777;28;20018;-71
2022/05/05 02:32:51;;;;;;;11.13;5.25;;;9.20;99.90;;;;;;5041415;28;20038;-71
2022/05/05 02:35:18;;;;;;;10.90;6.28;;;9.10;99.90;;;;;;5009290;28;20025;-70
2022/05/05 02:40:29;;;;;;;13.35;4.63;;;9.20;99.90;;;;;;5025510;28;20018;-70
2022/05/05 02:42:56;;;;;;;10.15;3.78;;;9.10;99.90;;;;;;5041435;28;20216;-70
2022/05/05 02:45:23;;;;;;;6.57;4.53;;;9.10;99.90;;;;;;5041711;28;20025;-70
2022/05/05 02:47:49;;;;;;;10.25;5.10;;;9.10;99.90;;;;;;5007839;28;20092;-70
2022/05/05 02:50:16;;;;;;;9.75;5.32;;;9.00;99.90;;;;;;5021844;28;20158;-69
2022/05/05 02:52:42;;;;;;;7.88;4.55;;;9.00;99.90;;;;;;5006158;28;20121;-70
2022/05/05 02:55:08;;;;;;;8.63;4.95;;;9.10;99.90;;;;;;5004538;28;20022;-70
2022/05/05 02:57:35;;;;;;;9.57;5.00;;;9.20;99.90;;;;;;5020854;28;20029;-69
2022/05/05 03:00:01;;;;;;;9.13;5.30;;;9.20;99.90;;;;;;5006334;28;20018;-71
2022/05/05 03:02:27;;;;;;;8.38;5.10;;;9.10;99.90;;;;;;5021894;28;20085;-70
2022/05/05 03:04:53;;;;;;;9.00;4.70;;;9.00;99.90;;;;;;5024502;28;20029;-70
2022/05/05 03:07:18;;;;;;;11.63;5.20;;;9.00;99.90;;;;;;5025131;28;20041;-70
2022/05/05 03:09:45;;;;;;;12.00;5.57;;;8.90;99.90;;;;;;5026103;28;20033;-70
2022/05/05 03:12:11;;;;;;;12.98;5.30;;;8.90;99.90;;;;;;5025396;28;20092;-70
2022/05/05 03:14:37;;;;;;;9.20;5.55;;;8.90;99.90;;;;;;5024340;28;20017;-70
2022/05/05 03:17:04;;;;;;;14.07;6.22;;;8.90;99.90;;;;;;5025286;28;20033;-70
2022/05/05 03:19:29;;;;;;;8.05;4.80;;;8.90;99.90;;;;;;5040881;28;20092;-71
2022/05/05 03:21:55;;;;;;;14.32;5.43;;;8.90;99.90;;;;;;5022858;28;20030;-69
2022/05/05 03:24:22;;;;;;;9.20;5.75;;;8.90;99.90;;;;;;5008124;28;20022;-69
2022/05/05 03:26:47;;;;;;;14.68;5.78;;;8.90;99.90;;;;;;5025298;28;20029;-69
2022/05/05 03:29:13;;;;;;;14.60;5.70;;;8.80;99.90;;;;;;5024049;28;20037;-70
2022/05/05 03:31:39;;;;;;;11.18;5.47;;;8.80;99.90;;;;;;5024198;28;20026;-71
2022/05/05 03:34:06;;;;;;;8.85;5.82;;;8.80;99.90;;;;;;5023759;28;20030;-70
2022/05/05 03:36:32;;;;;;;11.63;6.03;;;8.70;99.90;;;;;;5040321;28;20025;-71
2022/05/05 03:38:58;;;;;;;12.40;5.78;;;8.70;99.90;;;;;;5040284;28;20317;-70
2022/05/05 03:41:23;;;;;;;8.20;5.75;;;8.70;99.90;;;;;;5025082;28;20079;-69
2022/05/05 03:43:50;;;;;;;10.32;6.65;;;8.70;99.90;;;;;;5040406;28;20205;-70
2022/05/05 03:46:15;;;;;;;8.98;5.63;;;8.70;99.90;;;;;;5020682;28;20026;-70
2022/05/05 03:48:41;;;;;;;8.20;5.55;;;8.60;99.90;;;;;;5005619;28;20028;-70
2022/05/05 03:51:07;;;;;;;7.22;5.30;;;8.60;99.90;;;;;;5005512;28;20069;-70
2022/05/05 03:53:33;;;;;;;8.43;5.30;;;8.60;99.90;;;;;;5004092;28;20055;-70
2022/05/05 03:55:59;;;;;;;8.10;5.20;;;8.50;99.90;;;;;;5004158;28;20065;-70
2022/05/05 03:58:26;;;;;;;11.00;5.80;;;8.50;99.90;;;;;;4987982;28;20272;-69
2022/05/05 04:00:52;;;;;;;8.93;5.63;;;8.50;99.90;;;;;;5004219;28;20022;-70
2022/05/05 04:03:34;;;;;;;9.05;5.95;;;8.50;99.90;;;;;;5004976;28;20088;-70
2022/05/05 04:06:07;;;;;;;9.55;5.90;;;8.50;99.90;;;;;;5005200;28;20089;-70
2022/05/05 04:08:33;;;;;;;8.73;5.85;;;8.50;99.90;;;;;;5003640;28;20034;-70
2022/05/05 04:11:00;;;;;;;9.65;5.53;;;8.50;99.90;;;;;;5003878;28;20233;-70
2022/05/05 04:13:26;;;;;;;10.52;5.88;;;8.50;99.90;;;;;;4986982;28;20022;-71
2022/05/05 04:15:52;;;;;;;11.70;6.20;;;8.50;99.90;;;;;;5020064;28;20053;-70
2022/05/05 04:18:18;;;;;;;13.23;6.15;;;8.50;99.90;;;;;;5020230;28;20026;-69
2022/05/05 04:20:44;;;;;;;11.68;6.60;;;8.40;99.90;;;;;;4987577;28;20029;-70
2022/05/05 04:23:10;;;;;;;11.35;6.18;;;8.30;99.90;;;;;;5001535;28;20026;-70
2022/05/05 04:25:40;;;;;;;11.13;6.50;;;8.30;99.90;;;;;;5003823;28;20301;-69
2022/05/05 04:28:08;;;;;;;9.25;6.65;;;8.40;99.90;;;;;;5003726;28;20026;-70
2022/05/05 04:30:33;;;;;;;9.85;6.32;;;8.30;99.90;;;;;;5003855;28;20029;-70
2022/05/05 04:33:00;;;;;;;8.60;6.57;;;8.30;99.90;;;;;;5003329;28;20034;-70
2022/05/05 04:35:25;;;;;;;10.90;6.47;;;8.30;99.90;;;;;;5003515;28;20018;-71
2022/05/05 04:37:51;;;;;;;9.20;6.20;;;8.30;99.90;;;;;;5019945;28;20186;-69
2022/05/05 04:40:17;;;;;;;11.23;6.30;;;8.30;99.90;;;;;;5003859;28;20030;-71
2022/05/05 04:42:43;;;;;;;12.27;6.90;;;8.30;99.90;;;;;;5019836;28;20106;-69
2022/05/05 04:45:09;;;;;;;12.20;6.90;;;8.30;99.90;;;;;;5003131;28;20216;-70
2022/05/05 04:47:35;;;;;;;11.35;6.43;;;8.30;99.90;;;;;;5002860;28;20022;-70
2022/05/05 04:50:01;;;;;;;12.20;6.93;;;8.30;99.90;;;;;;5019491;28;20157;-70
2022/05/05 04:52:27;;;;;;;10.38;6.68;;;8.30;99.90;;;;;;5004365;28;20073;-69
2022/05/05 04:54:53;;;;;;;11.65;6.93;;;8.30;99.90;;;;;;5003170;28;20018;-70
2022/05/05 04:57:19;;;;;;;12.25;6.72;;;8.30;99.90;;;;;;4986658;28;20105;-69
2022/05/05 04:59:45;;;;;;;12.60;6.68;;;8.30;99.90;;;;;;5018733;28;20037;-71
2022/05/05 05:02:11;;;;;;;14.35;6.88;;;8.30;99.90;;;;;;5016161;28;20021;-71
2022/05/05 05:04:37;;;;;;;13.35;7.22;;;8.40;99.90;;;;;;5022080;28;20021;-70
2022/05/05 05:07:03;;;;;;;12.80;6.93;;;8.40;99.90;;;;;;5021666;28;20022;-70
2022/05/05 05:09:29;;;;;;;15.52;7.00;;;8.40;99.90;;;;;;5023464;28;20026;-70
2022/05/05 05:11:55;;;;;;;12.10;7.20;;;8.50;99.90;;;;;;5023506;28;20032;-71
2022/05/05 05:14:20;;;;;;;22.17;7.95;;;8.60;99.90;;;;;;5023382;28;20057;-70
2022/05/05 05:16:46;;;;;;;16.13;7.78;;;8.50;99.90;;;;;;5021058;28;20042;-70
2022/05/05 05:19:12;;;;;;;18.17;7.60;;;8.60;99.90;;;;;;5021820;28;20038;-71
2022/05/05 05:21:37;;;;;;;12.38;7.18;;;8.70;99.90;;;;;;5020565;28;20022;-70
2022/05/05 05:24:03;;;;;;;16.67;7.93;;;8.80;99.90;;;;;;5018343;28;20054;-70
2022/05/05 05:26:29;;;;;;;19.63;8.50;;;8.90;99.90;;;;;;5020911;28;20382;-70
2022/05/05 05:28:55;;;;;;;11.00;7.03;;;8.90;99.90;;;;;;5020454;28;20057;-70
2022/05/05 05:31:22;;;;;;;12.98;7.20;;;9.00;99.90;;;;;;5004705;28;20029;-70
2022/05/05 05:33:48;;;;;;;12.02;7.93;;;9.10;99.90;;;;;;5005084;28;20029;-70
2022/05/05 05:36:14;;;;;;;13.75;7.45;;;9.20;99.90;;;;;;5021753;28;20028;-70
2022/05/05 05:38:40;;;;;;;12.40;6.75;;;9.30;99.90;;;;;;5021159;28;20022;-70
2022/05/05 05:41:06;;;;;;;13.70;7.00;;;9.40;99.90;;;;;;5020821;28;20072;-70
2022/05/05 05:43:31;;;;;;;16.55;7.70;;;9.50;99.90;;;;;;5020414;28;20109;-70
2022/05/05 05:45:57;;;;;;;10.57;7.50;;;9.60;99.90;;;;;;5035814;28;20017;-70
2022/05/05 05:48:23;;;;;;;15.48;7.25;;;9.60;99.90;;;;;;4984880;28;20185;-70
2022/05/05 05:50:48;;;;;;;50.88;9.65;;;9.70;99.90;;;;;;5002283;28;20101;-70
2022/05/05 05:53:14;;;;;;;17.35;7.60;;;9.80;99.90;;;;;;4985554;28;20065;-70
2022/05/05 05:55:40;;;;;;;12.48;7.35;;;9.90;99.90;;;;;;5003092;28;20045;-70
2022/05/05 05:58:05;;;;;;;14.50;7.45;;;9.90;99.90;;;;;;5017495;28;20153;-71
2022/05/05 06:00:32;;;;;;;11.93;6.90;;;10.00;99.90;;;;;;5001701;28;20014;-70
2022/05/05 06:05:45;;;;;;;11.77;7.13;;;10.20;99.90;;;;;;4988194;28;20073;-71
2022/05/05 06:08:11;;;;;;;17.38;7.13;;;10.20;99.90;;;;;;5002246;28;20026;-69
2022/05/05 06:10:37;;;;;;;22.60;7.82;;;10.30;99.90;;;;;;5001468;28;20038;-71
2022/05/05 06:13:03;;;;;;;22.85;7.00;;;10.50;99.90;;;;;;5000035;28;20046;-69
2022/05/05 06:15:29;;;;;;;13.90;7.13;;;10.60;99.90;;;;;;5000231;28;20023;-70
2022/05/05 06:17:55;;;;;;;9.60;6.72;;;10.80;99.90;;;;;;5001584;28;20042;-71
2022/05/05 06:20:21;;;;;;;11.45;5.97;;;11.00;99.90;;;;;;4984384;28;20026;-70
2022/05/05 06:22:47;;;;;;;15.40;6.65;;;11.20;99.90;;;;;;5001639;28;20026;-69
2022/05/05 06:25:13;;;;;;;10.23;6.63;;;11.40;99.90;;;;;;4998820;28;20026;-70
2022/05/05 06:27:39;;;;;;;17.58;7.63;;;11.60;99.90;;;;;;4968103;28;20022;-71
2022/05/05 06:30:09;;;;;;;22.35;6.97;;;11.60;99.90;;;;;;5001698;28;20345;-71
2022/05/05 06:32:35;;;;;;;16.83;6.88;;;11.70;99.90;;;;;;5003673;28;20042;-71
2022/05/05 06:35:00;;;;;;;35.83;7.60;;;11.70;99.90;;;;;;4971332;28;20030;-70
2022/05/05 06:37:26;;;;;;;21.33;7.22;;;11.80;99.90;;;;;;4987149;28;20082;-70
2022/05/05 06:39:52;;;;;;;23.50;6.93;;;11.90;99.90;;;;;;5004329;28;20320;-70
2022/05/05 06:42:18;;;;;;;18.45;6.50;;;12.00;99.90;;;;;;5003832;28;20301;-76
2022/05/05 06:44:44;;;;;;;25.30;6.88;;;12.10;99.90;;;;;;5005074;28;20026;-71
2022/05/05 06:47:11;;;;;;;24.10;7.35;;;12.20;99.90;;;;;;4987508;28;20034;-70
2022/05/05 06:49:37;;;;;;;30.10;7.72;;;12.40;99.90;;;;;;5003362;28;20050;-72
2022/05/05 06:52:03;;;;;;;23.42;7.45;;;12.50;99.90;;;;;;5020725;28;20050;-72
2022/05/05 06:54:29;;;;;;;19.17;6.70;;;12.60;99.90;;;;;;5003680;28;20057;-71
2022/05/05 06:56:55;;;;;;;16.63;6.63;;;12.70;99.90;;;;;;5003581;28;20045;-69
2022/05/05 06:59:22;;;;;;;26.08;7.75;;;12.70;99.90;;;;;;5003383;28;20018;-69
2022/05/05 07:01:57;;;;;;;25.88;7.00;;;12.70;99.90;;;;;;5015140;28;20018;-68
2022/05/05 07:07:11;;;;;;;27.63;7.00;;;13.00;99.90;;;;;;5036327;28;20026;-69
2022/05/05 07:12:23;;;;;;;18.45;9.32;;;13.50;99.90;;;;;;5003780;28;20042;-69
2022/05/05 07:14:48;;;;;;;19.63;12.00;;;13.70;99.90;;;;;;4994095;28;20030;-69
2022/05/05 07:17:14;;;;;;;25.10;14.10;;;14.00;99.90;;;;;;5002936;28;20244;-70
2022/05/05 07:19:40;;;;;;;24.85;14.43;;;14.00;99.90;;;;;;5002765;28;20076;-70
2022/05/05 07:22:07;;;;;;;35.90;15.70;;;14.10;99.90;;;;;;4985652;28;20264;-71
2022/05/05 07:24:33;;;;;;;32.53;17.00;;;14.00;99.90;;;;;;4977072;28;20113;-71
2022/05/05 07:26:59;;;;;;;32.30;17.45;;;13.90;99.90;;;;;;4973069;28;20042;-71
2022/05/05 07:29:25;;;;;;;25.98;15.63;;;14.00;99.90;;;;;;4983744;28;20101;-70
2022/05/05 07:31:51;;;;;;;33.50;18.90;;;14.10;99.90;;;;;;5017577;28;20602;-71
2022/05/05 07:34:18;;;;;;;33.30;19.25;;;14.10;99.90;;;;;;5004181;28;20030;-72
2022/05/05 07:36:44;;;;;;;34.58;18.65;;;14.10;99.90;;;;;;4993703;28;20034;-71
2022/05/05 07:39:10;;;;;;;30.85;17.48;;;14.20;99.90;;;;;;4990044;28;20313;-72
2022/05/05 07:41:37;;;;;;;28.10;18.05;;;14.30;99.90;;;;;;5001819;28;20030;-69
2022/05/05 07:44:04;;;;;;;29.52;18.27;;;14.40;99.90;;;;;;5003100;28;20030;-70
2022/05/05 07:46:30;;;;;;;29.73;18.05;;;14.40;99.90;;;;;;5001260;28;20102;-73
2022/05/05 07:48:56;;;;;;;29.10;17.95;;;14.40;99.90;;;;;;5003447;28;20301;-74
2022/05/05 07:51:21;;;;;;;32.25;19.05;;;14.30;99.90;;;;;;4985556;28;20105;-72
2022/05/05 07:54:34;;;;;;;33.13;21.10;;;14.30;99.90;;;;;;5002444;28;20058;-71
2022/05/05 07:56:33;;;;;;;29.83;19.23;;;14.40;99.90;;;;;;4986732;28;20022;-71
2022/05/05 07:58:58;;;;;;;29.75;19.88;;;14.40;99.90;;;;;;4982139;28;20218;-69
2022/05/05 08:01:26;;;;;;;37.78;22.27;;;14.40;99.90;;;;;;5004906;28;20045;-71
2022/05/05 08:03:55;;;;;;;30.60;20.38;;;14.40;99.90;;;;;;5022301;28;20102;-70
2022/05/05 08:06:21;;;;;;;32.83;19.55;;;14.50;99.90;;;;;;5020798;28;20033;-68
2022/05/05 08:08:47;;;;;;;40.13;21.20;;;14.70;99.90;;;;;;5002961;28;20093;-68
2022/05/05 08:11:13;;;;;;;33.10;21.30;;;14.70;99.90;;;;;;5002115;28;20049;-68
2022/05/05 08:13:38;;;;;;;30.25;20.35;;;14.80;99.90;;;;;;5000889;28;20574;-70
2022/05/05 08:16:04;;;;;;;32.67;20.25;;;14.80;99.90;;;;;;5001374;28;20037;-70
2022/05/05 08:18:30;;;;;;;25.52;17.98;;;15.00;99.90;;;;;;5017269;28;20050;-71
2022/05/05 08:20:57;;;;;;;28.90;18.45;;;15.30;99.90;;;;;;5001503;28;20050;-72
2022/05/05 08:23:22;;;;;;;30.95;20.13;;;15.50;99.90;;;;;;4997717;28;20038;-70
2022/05/05 08:28:36;;;;;;;28.42;17.75;;;15.90;98.90;;;;;;4987196;28;20042;-71
2022/05/05 08:31:02;;;;;;;28.48;18.90;;;16.10;98.70;;;;;;5002188;28;20069;-70
2022/05/05 08:33:28;;;;;;;25.50;18.23;;;16.30;98.30;;;;;;4997854;28;20311;-71
2022/05/05 08:35:55;;;;;;;19.30;15.02;;;16.50;98.10;;;;;;4965788;28;20031;-69
2022/05/05 08:38:22;;;;;;;26.33;14.52;;;16.70;96.60;;;;;;4996265;28;20053;-70
2022/05/05 08:40:48;;;;;;;20.77;14.18;;;16.70;96.40;;;;;;5001853;28;20034;-73
2022/05/05 08:43:17;;;;;;;23.52;14.35;;;16.60;96.40;;;;;;5002246;28;20064;-70
2022/05/05 08:45:45;;;;;;;27.27;14.75;;;16.50;96.60;;;;;;5016698;28;20049;-70
2022/05/05 08:48:12;;;;;;;21.75;13.63;;;16.50;96.40;;;;;;5017171;28;20038;-70
2022/05/05 08:50:41;;;;;;;20.20;13.52;;;16.50;96.20;;;;;;4984616;28;20022;-70
2022/05/05 08:53:07;;;;;;;21.25;11.77;;;16.50;96.50;;;;;;4992889;28;20051;-70
2022/05/05 08:55:34;;;;;;;24.65;13.00;;;16.40;96.70;;;;;;4996508;28;20076;-72
2022/05/05 08:58:01;;;;;;;18.25;11.25;;;16.50;96.70;;;;;;5003187;28;20026;-71
2022/05/05 09:00:27;;;;;;;24.83;11.50;;;16.50;96.50;;;;;;5001923;28;20360;-70
2022/05/05 09:02:56;;;;;;;17.10;10.63;;;16.60;96.00;;;;;;5006699;28;20065;-69
2022/05/05 09:05:48;;;;;;;18.17;10.70;;;16.60;95.80;;;;;;5001010;28;20026;-69
2022/05/05 09:08:27;;;;;;;19.77;10.38;;;16.60;95.80;;;;;;5000419;28;20093;-70
2022/05/05 09:10:56;;;;;;;13.73;9.65;;;16.60;95.50;;;;;;4999831;28;20062;-70
2022/05/05 09:13:25;;;;;;;16.02;8.60;;;16.50;95.70;;;;;;5000322;28;20053;-72
2022/05/05 09:15:51;;;;;;;17.33;10.02;;;16.50;95.90;;;;;;5001079;28;20352;-70
2022/05/05 09:18:25;;;;;;;13.38;8.38;;;16.50;95.80;;;;;;5015710;28;20029;-69
2022/05/05 09:20:52;;;;;;;19.83;8.48;;;16.50;95.40;;;;;;4999188;28;20019;-68
2022/05/05 09:23:36;;;;;;;21.80;7.10;;;16.70;95.60;;;;;;5000605;28;20301;-70
2022/05/05 09:26:04;;;;;;;16.33;6.68;;;17.00;94.70;;;;;;4990819;28;20025;-69
2022/05/05 09:28:31;;;;;;;11.35;7.35;;;17.30;93.80;;;;;;4980678;28;20022;-72
2022/05/05 09:31:04;;;;;;;9.38;6.13;;;17.40;94.30;;;;;;4967105;28;20018;-71
2022/05/05 09:33:45;;;;;;;10.73;6.20;;;17.50;93.70;;;;;;4996221;28;20045;-68
2022/05/05 09:36:13;;;;;;;11.88;6.20;;;17.70;93.50;;;;;;4993629;28;20026;-71
2022/05/05 09:39:00;;;;;;;13.50;6.22;;;17.90;93.20;;;;;;4984986;28;20062;-69
2022/05/05 09:41:29;;;;;;;8.68;5.50;;;17.90;92.80;;;;;;4986144;28;20216;-68
2022/05/05 09:43:57;;;;;;;7.32;5.60;;;18.00;93.10;;;;;;5017295;28;20026;-72
2022/05/05 09:46:31;;;;;;;4.13;2.50;;;18.10;93.00;;;;;;4983457;28;20277;-69
2022/05/05 09:49:13;;;;;;;9.07;2.55;;;18.10;91.30;;;;;;4988893;28;20331;-70
2022/05/05 09:57:45;;;;;;;3.60;2.50;;;18.00;90.60;;;;;;4999896;28;20045;-69
2022/05/05 10:05:49;;;;;;;4.85;2.00;;;17.90;90.70;;;;;;4996060;28;20035;-68
2022/05/05 10:08:19;;;;;;;5.57;2.00;;;17.90;90.50;;;;;;4985946;28;20034;-69
2022/05/05 10:10:45;;;;;;;6.75;2.63;;;18.00;90.20;;;;;;5003342;28;20046;-67
2022/05/05 10:13:12;;;;;;;8.88;2.13;;;18.10;90.00;;;;;;5003894;28;20038;-69
2022/05/05 10:15:39;;;;;;;5.85;1.88;;;18.20;89.50;;;;;;5004018;28;20081;-69
2022/05/05 10:18:05;;;;;;;7.28;2.25;;;18.10;88.40;;;;;;5003981;28;20048;-70
2022/05/05 10:20:32;;;;;;;3.58;2.03;;;18.10;89.40;;;;;;5002396;28;20035;-71
2022/05/05 10:23:11;;;;;;;6.82;2.38;;;18.00;89.20;;;;;;5019109;28;20034;-69
2022/05/05 10:25:39;;;;;;;6.65;2.15;;;18.10;89.60;;;;;;5003595;28;20037;-72
2022/05/05 10:28:41;;;;;;;4.97;2.10;;;18.10;89.30;;;;;;5001211;28;20018;-70
2022/05/05 10:31:47;;;;;;;3.47;1.88;;;18.10;89.10;;;;;;5002355;28;20313;-70
2022/05/05 10:34:15;;;;;;;3.40;1.90;;;18.20;87.60;;;;;;4978410;28;20065;-70
2022/05/05 10:36:57;;;;;;;5.15;2.15;;;18.20;87.30;;;;;;4967158;28;20304;-70
2022/05/05 10:39:22;;;;;;;3.55;1.83;;;18.30;87.10;;;;;;4999606;28;20054;-71
2022/05/05 10:41:50;;;;;;;4.70;2.50;;;18.30;86.20;;;;;;5007617;28;20033;-68
2022/05/05 10:44:22;;;;;;;6.35;2.63;;;18.40;87.60;;;;;;5003441;28;20109;-70
2022/05/05 10:47:02;;;;;;;6.95;3.00;;;18.40;87.80;;;;;;4986296;28;20206;-68
2022/05/05 10:49:48;;;;;;;9.93;4.32;;;18.50;89.00;;;;;;5001842;28;20041;-69
2022/05/05 10:52:34;;;;;;;8.02;6.60;;;18.50;92.00;;;;;;4982656;28;20045;-69
2022/05/05 10:55:22;;;;;;;6.82;5.35;;;18.60;93.10;;;;;;5000481;28;20034;-70
2022/05/05 10:57:48;;;;;;;11.32;5.75;;;18.60;93.10;;;;;;4988546;28;20030;-69
2022/05/05 11:00:18;;;;;;;10.40;5.10;;;18.80;93.00;;;;;;4969094;28;20025;-68
2022/05/05 11:03:11;;;;;;;10.13;5.50;;;18.90;92.50;;;;;;5001017;28;20030;-69
2022/05/05 11:05:38;;;;;;;8.00;4.90;;;18.90;92.60;;;;;;4989169;28;20198;-69
2022/05/05 11:08:31;;;;;;;8.35;4.68;;;19.10;91.00;;;;;;5003372;28;20060;-68
2022/05/05 11:13:45;;;;;;;8.10;3.90;;;19.30;90.80;;;;;;4980901;28;20089;-68
2022/05/05 11:22:20;;;;;;;9.75;3.38;;;19.60;88.90;;;;;;4989610;28;20037;-70
2022/05/05 11:24:48;;;;;;;7.13;3.05;;;19.70;88.90;;;;;;5002418;28;20060;-68
2022/05/05 11:27:16;;;;;;;6.90;2.67;;;19.70;87.50;;;;;;5001698;28;20081;-69
2022/05/05 11:29:51;;;;;;;5.43;2.42;;;19.60;86.70;;;;;;4999610;28;20349;-68
2022/05/05 11:32:19;;;;;;;9.02;2.95;;;19.80;84.90;;;;;;5002908;28;20069;-70
2022/05/05 11:34:46;;;;;;;4.28;2.50;;;19.90;85.80;;;;;;4997221;28;20031;-68
2022/05/05 11:37:12;;;;;;;5.82;1.83;;;19.80;84.90;;;;;;5001616;28;20022;-71
2022/05/05 11:39:41;;;;;;;4.80;2.53;;;19.70;85.50;;;;;;5002311;28;20799;-68
2022/05/05 11:42:11;;;;;;;8.13;2.60;;;19.80;85.80;;;;;;4985160;28;20089;-68
2022/05/05 11:44:39;;;;;;;4.70;2.90;;;19.80;85.60;;;;;;5002260;28;20026;-70
2022/05/05 11:47:11;;;;;;;4.38;3.13;;;19.70;86.80;;;;;;5001961;28;20021;-70
2022/05/05 11:49:37;;;;;;;7.22;3.80;;;19.80;87.50;;;;;;5001688;28;20042;-68
2022/05/05 11:52:04;;;;;;;6.97;3.45;;;19.90;87.70;;;;;;4985347;28;20030;-69
2022/05/05 11:54:32;;;;;;;8.65;3.17;;;19.80;88.10;;;;;;4995224;28;20068;-71
2022/05/05 11:57:00;;;;;;;7.13;2.92;;;19.90;88.00;;;;;;4998790;28;20026;-70
2022/05/05 12:02:17;;;;;;;9.00;4.75;;;19.90;86.60;;;;;;4980362;28;20023;-68
2022/05/05 12:04:46;;;;;;;14.43;5.25;;;20.20;88.90;;;;;;4982037;28;20381;-70
2022/05/05 12:07:23;;;;;;;6.55;3.97;;;20.20;89.50;;;;;;4980871;28;20206;-69
2022/05/05 12:09:53;;;;;;;10.52;4.10;;;20.40;87.90;;;;;;4968216;28;20041;-70
2022/05/05 12:12:23;;;;;;;10.57;3.80;;;20.60;87.50;;;;;;4966421;28;20103;-69
2022/05/05 12:14:52;;;;;;;12.23;4.03;;;20.80;86.90;;;;;;4965908;28;20293;-69
2022/05/05 12:17:20;;;;;;;13.10;4.13;;;21.00;87.20;;;;;;4981434;28;20038;-69
2022/05/05 12:19:50;;;;;;;13.43;4.00;;;21.00;85.80;;;;;;4981327;28;20101;-69
2022/05/05 12:22:28;;;;;;;8.77;4.10;;;21.00;85.60;;;;;;4982725;28;20068;-70
2022/05/05 12:24:54;;;;;;;10.63;4.20;;;21.00;85.00;;;;;;5000525;28;20034;-71
2022/05/05 12:27:25;;;;;;;6.82;3.15;;;20.90;84.90;;;;;;5000401;28;20248;-69
2022/05/05 12:29:51;;;;;;;8.32;3.53;;;21.00;84.60;;;;;;5014330;28;20025;-69
2022/05/05 12:32:18;;;;;;;12.43;3.60;;;21.10;84.10;;;;;;5002000;28;20054;-71
2022/05/05 12:34:45;;;;;;;9.13;3.67;;;21.40;83.70;;;;;;4984683;28;20097;-68
2022/05/05 12:37:20;;;;;;;6.20;3.50;;;21.60;83.00;;;;;;4984249;28;20097;-69
2022/05/05 12:40:04;;;;;;;11.93;3.80;;;21.70;82.50;;;;;;5001434;28;20053;-70
2022/05/05 12:42:49;;;;;;;13.80;3.83;;;21.60;83.30;;;;;;5000251;28;20034;-72
2022/05/05 12:45:24;;;;;;;8.73;3.78;;;21.80;83.40;;;;;;4986092;28;20026;-71
2022/05/05 12:47:51;;;;;;;7.60;3.80;;;22.00;84.20;;;;;;5016761;28;20064;-70
2022/05/05 12:50:40;;;;;;;8.35;3.80;;;22.00;82.60;;;;;;5000847;28;20399;-71
2022/05/05 13:01:46;;;;;;;6.43;3.70;;;21.10;84.50;;;;;;4999055;28;20381;-69
2022/05/05 13:04:15;;;;;;;11.57;4.35;;;21.00;83.40;;;;;;5000339;28;20036;-70
2022/05/05 13:06:43;;;;;;;8.70;3.38;;;20.80;84.20;;;;;;4984414;28;20299;-68
2022/05/05 13:09:10;;;;;;;9.20;3.38;;;20.90;85.00;;;;;;5001718;28;20064;-69
2022/05/05 13:11:38;;;;;;;7.18;3.60;;;20.90;84.10;;;;;;4984237;28;20029;-69
2022/05/05 13:14:04;;;;;;;8.90;3.72;;;20.70;84.30;;;;;;5000485;28;20240;-69
2022/05/05 13:16:30;;;;;;;9.15;3.97;;;20.80;85.60;;;;;;5000236;28;20035;-69
2022/05/05 13:18:58;;;;;;;10.65;4.60;;;20.90;85.30;;;;;;4999905;28;20049;-71
2022/05/05 13:21:24;;;;;;;8.40;3.80;;;21.00;85.90;;;;;;5000621;28;20030;-70
2022/05/05 13:23:51;;;;;;;9.27;3.58;;;21.20;85.60;;;;;;4980473;28;20138;-69
2022/05/05 13:26:17;;;;;;;16.92;4.22;;;21.40;84.90;;;;;;4981325;28;20334;-70
2022/05/05 13:28:43;;;;;;;9.05;3.92;;;21.50;84.70;;;;;;4999683;28;20054;-70
2022/05/05 13:31:08;;;;;;;9.88;4.32;;;21.60;84.30;;;;;;4998942;28;20030;-72
2022/05/05 13:33:34;;;;;;;8.13;4.20;;;21.60;84.70;;;;;;4999968;28;20026;-70
2022/05/05 13:36:00;;;;;;;9.30;4.50;;;21.50;85.50;;;;;;5016549;28;20026;-70
2022/05/05 13:38:27;;;;;;;13.43;4.88;;;21.60;85.70;;;;;;5001204;28;20229;-70
2022/05/05 13:40:56;;;;;;;10.82;4.50;;;21.60;85.80;;;;;;4986373;28;20030;-71